Cumberland, Virginia
Current Conditions -  °F | °C
As of 3:35 PM on Monday 26 Jan 2015 (Local Time) from KFVX Reporting Station
Overcast Overcast  
Wind Chill: 36°   Ceiling: 800
Heat Index: 42°   Visibility: 10mi
Dew Point: 42°   Wind: 10mph
Humidity: 100%   Direction: 20°NNE
Pressure: 29.61"   Gusts: NA
Location:  37.5°N, 78.24°W
Report Text: KFVX 262035Z AUTO 02009KT 10SM OVC008 06/06 A2961 RMK AO2 T00550055
Loading
Personal Weather Stations






























Interactive Weather Map New forecast layout! Learn more

10-Day Weather Forecast

Advertisements
Track Severe Weather on mobile